sensor_id;sensor_type;location;lat;lon;timestamp;temperature;humidity
11656;DHT22;5884;43.618;1.438;2023-05-14T04:45:19;12.30;99.90
11656;DHT22;5884;43.618;1.438;2023-05-14T04:47:46;12.30;99.90
11656;DHT22;5884;43.618;1.438;2023-05-14T04:50:13;12.30;99.90
11656;DHT22;5884;43.618;1.438;2023-05-14T04:52:41;12.30;99.90
11656;DHT22;5884;43.618;1.438;2023-05-14T04:55:09;12.40;99.90
11656;DHT22;5884;43.618;1.438;2023-05-14T04:57:36;12.40;99.90
11656;DHT22;5884;43.618;1.438;2023-05-14T05:00:06;12.40;99.90
11656;DHT22;5884;43.618;1.438;2023-05-14T05:02:36;12.40;99.90
11656;DHT22;5884;43.618;1.438;2023-05-14T05:05:03;12.50;99.90
11656;DHT22;5884;43.618;1.438;2023-05-14T05:07:31;12.50;99.90
11656;DHT22;5884;43.618;1.438;2023-05-14T05:09:58;12.60;99.90
11656;DHT22;5884;43.618;1.438;2023-05-14T05:12:26;12.50;99.90
11656;DHT22;5884;43.618;1.438;2023-05-14T05:14:55;12.50;99.90
11656;DHT22;5884;43.618;1.438;2023-05-14T05:17:22;12.60;99.90
11656;DHT22;5884;43.618;1.438;2023-05-14T05:19:51;12.50;99.90
11656;DHT22;5884;43.618;1.438;2023-05-14T05:22:18;12.60;99.90
11656;DHT22;5884;43.618;1.438;2023-05-14T05:24:45;12.60;99.90
11656;DHT22;5884;43.618;1.438;2023-05-14T05:27:13;12.60;99.90
11656;DHT22;5884;43.618;1.438;2023-05-14T05:29:40;12.60;99.90
11656;DHT22;5884;43.618;1.438;2023-05-14T05:32:07;12.60;99.90
11656;DHT22;5884;43.618;1.438;2023-05-14T05:34:35;12.60;99.90
11656;DHT22;5884;43.618;1.438;2023-05-14T05:37:03;12.70;99.90
11656;DHT22;5884;43.618;1.438;2023-05-14T05:39:31;12.70;99.90
11656;DHT22;5884;43.618;1.438;2023-05-14T05:41:59;12.60;99.90
11656;DHT22;5884;43.618;1.438;2023-05-14T05:44:27;12.70;99.90
11656;DHT22;5884;43.618;1.438;2023-05-14T05:46:54;12.60;99.90
11656;DHT22;5884;43.618;1.438;2023-05-14T05:49:22;12.60;99.90
11656;DHT22;5884;43.618;1.438;2023-05-14T05:51:49;12.70;99.90
11656;DHT22;5884;43.618;1.438;2023-05-14T05:54:18;12.70;99.90
11656;DHT22;5884;43.618;1.438;2023-05-14T05:56:45;12.70;99.90
11656;DHT22;5884;43.618;1.438;2023-05-14T05:59:12;12.70;99.90
11656;DHT22;5884;43.618;1.438;2023-05-14T06:01:39;12.70;99.90
11656;DHT22;5884;43.618;1.438;2023-05-14T06:04:08;12.80;99.90
11656;DHT22;5884;43.618;1.438;2023-05-14T06:06:35;12.80;99.90
11656;DHT22;5884;43.618;1.438;2023-05-14T06:09:02;12.80;99.90
11656;DHT22;5884;43.618;1.438;2023-05-14T06:11:32;12.80;99.90
11656;DHT22;5884;43.618;1.438;2023-05-14T06:14:00;12.80;99.90
11656;DHT22;5884;43.618;1.438;2023-05-14T06:16:27;12.80;99.90
11656;DHT22;5884;43.618;1.438;2023-05-14T06:18:54;12.90;99.90
11656;DHT22;5884;43.618;1.438;2023-05-14T06:21:21;13.00;99.90
11656;DHT22;5884;43.618;1.438;2023-05-14T06:23:48;13.00;99.90
11656;DHT22;5884;43.618;1.438;2023-05-14T06:26:16;13.00;99.90
11656;DHT22;5884;43.618;1.438;2023-05-14T06:28:44;13.00;99.90
11656;DHT22;5884;43.618;1.438;2023-05-14T06:31:12;13.10;99.90
11656;DHT22;5884;43.618;1.438;2023-05-14T06:33:39;13.10;99.90
11656;DHT22;5884;43.618;1.438;2023-05-14T06:36:07;13.20;99.90
11656;DHT22;5884;43.618;1.438;2023-05-14T06:38:34;13.30;99.90
11656;DHT22;5884;43.618;1.438;2023-05-14T06:41:02;13.30;99.90
11656;DHT22;5884;43.618;1.438;2023-05-14T06:43:29;13.30;99.90
11656;DHT22;5884;43.618;1.438;2023-05-14T06:45:58;13.40;99.90
11656;DHT22;5884;43.618;1.438;2023-05-14T06:48:25;13.40;99.90
11656;DHT22;5884;43.618;1.438;2023-05-14T06:50:54;13.40;99.90
11656;DHT22;5884;43.618;1.438;2023-05-14T06:53:21;13.50;99.90
11656;DHT22;5884;43.618;1.438;2023-05-14T06:55:48;13.60;99.90
11656;DHT22;5884;43.618;1.438;2023-05-14T06:58:16;13.60;99.90
11656;DHT22;5884;43.618;1.438;2023-05-14T07:00:43;13.60;99.90
11656;DHT22;5884;43.618;1.438;2023-05-14T07:03:11;13.60;99.90
11656;DHT22;5884;43.618;1.438;2023-05-14T07:05:39;13.60;99.90
11656;DHT22;5884;43.618;1.438;2023-05-14T07:08:06;13.60;99.90
11656;DHT22;5884;43.618;1.438;2023-05-14T07:10:34;13.70;99.90
11656;DHT22;5884;43.618;1.438;2023-05-14T07:13:01;13.70;99.90
11656;DHT22;5884;43.618;1.438;2023-05-14T07:15:28;13.90;99.90
11656;DHT22;5884;43.618;1.438;2023-05-14T07:17:56;14.00;99.90
11656;DHT22;5884;43.618;1.438;2023-05-14T07:20:24;14.00;99.90
11656;DHT22;5884;43.618;1.438;2023-05-14T07:22:52;14.20;99.90
11656;DHT22;5884;43.618;1.438;2023-05-14T07:25:19;14.30;99.90
11656;DHT22;5884;43.618;1.438;2023-05-14T07:27:46;14.40;99.90
11656;DHT22;5884;43.618;1.438;2023-05-14T07:30:14;14.70;99.90
11656;DHT22;5884;43.618;1.438;2023-05-14T07:32:41;14.80;99.90
11656;DHT22;5884;43.618;1.438;2023-05-14T07:35:08;14.80;99.90
11656;DHT22;5884;43.618;1.438;2023-05-14T07:37:38;14.70;99.90
11656;DHT22;5884;43.618;1.438;2023-05-14T07:40:06;14.70;99.90
11656;DHT22;5884;43.618;1.438;2023-05-14T07:42:35;14.70;99.90
11656;DHT22;5884;43.618;1.438;2023-05-14T07:45:03;14.70;99.90
11656;DHT22;5884;43.618;1.438;2023-05-14T07:47:30;14.70;99.90
11656;DHT22;5884;43.618;1.438;2023-05-14T07:49:58;14.70;99.90
11656;DHT22;5884;43.618;1.438;2023-05-14T07:52:25;14.80;99.90
11656;DHT22;5884;43.618;1.438;2023-05-14T07:54:54;14.90;99.90
11656;DHT22;5884;43.618;1.438;2023-05-14T07:57:21;14.90;99.90
11656;DHT22;5884;43.618;1.438;2023-05-14T07:59:48;14.90;99.90
11656;DHT22;5884;43.618;1.438;2023-05-14T08:02:16;14.70;99.90
11656;DHT22;5884;43.618;1.438;2023-05-14T08:04:43;14.70;99.90
11656;DHT22;5884;43.618;1.438;2023-05-14T08:07:10;14.70;99.90
11656;DHT22;5884;43.618;1.438;2023-05-14T08:09:37;14.70;99.90
11656;DHT22;5884;43.618;1.438;2023-05-14T08:12:07;14.70;99.90
11656;DHT22;5884;43.618;1.438;2023-05-14T08:14:34;14.70;99.90
11656;DHT22;5884;43.618;1.438;2023-05-14T08:17:01;14.90;99.90
11656;DHT22;5884;43.618;1.438;2023-05-14T08:19:28;14.80;99.90
11656;DHT22;5884;43.618;1.438;2023-05-14T08:21:56;14.80;99.90
11656;DHT22;5884;43.618;1.438;2023-05-14T08:24:23;14.70;99.90
11656;DHT22;5884;43.618;1.438;2023-05-14T08:26:50;14.70;99.90
11656;DHT22;5884;43.618;1.438;2023-05-14T08:29:19;14.60;99.90
11656;DHT22;5884;43.618;1.438;2023-05-14T08:31:48;14.70;99.90
11656;DHT22;5884;43.618;1.438;2023-05-14T08:34:15;14.70;99.90
11656;DHT22;5884;43.618;1.438;2023-05-14T08:36:43;14.70;99.90
11656;DHT22;5884;43.618;1.438;2023-05-14T08:39:10;14.80;99.90
11656;DHT22;5884;43.618;1.438;2023-05-14T08:41:39;15.00;99.90
11656;DHT22;5884;43.618;1.438;2023-05-14T08:44:09;15.10;99.90
11656;DHT22;5884;43.618;1.438;2023-05-14T08:46:40;15.00;99.90
11656;DHT22;5884;43.618;1.438;2023-05-14T08:49:14;15.20;99.90
11656;DHT22;5884;43.618;1.438;2023-05-14T08:51:46;15.30;99.90
11656;DHT22;5884;43.618;1.438;2023-05-14T08:54:15;15.30;99.90
11656;DHT22;5884;43.618;1.438;2023-05-14T08:56:43;15.50;99.90
11656;DHT22;5884;43.618;1.438;2023-05-14T08:59:11;15.30;99.90
11656;DHT22;5884;43.618;1.438;2023-05-14T09:01:45;15.40;99.90
11656;DHT22;5884;43.618;1.438;2023-05-14T09:04:15;15.20;99.90
11656;DHT22;5884;43.618;1.438;2023-05-14T09:06:48;15.30;99.90
11656;DHT22;5884;43.618;1.438;2023-05-14T09:09:16;15.30;99.90
11656;DHT22;5884;43.618;1.438;2023-05-14T09:11:47;15.30;99.90
11656;DHT22;5884;43.618;1.438;2023-05-14T09:14:15;15.30;99.90
11656;DHT22;5884;43.618;1.438;2023-05-14T09:16:46;15.60;99.90
11656;DHT22;5884;43.618;1.438;2023-05-14T09:19:14;15.60;99.90
11656;DHT22;5884;43.618;1.438;2023-05-14T09:21:44;15.60;99.90
11656;DHT22;5884;43.618;1.438;2023-05-14T09:24:18;15.80;99.90
11656;DHT22;5884;43.618;1.438;2023-05-14T09:26:49;16.00;99.90
11656;DHT22;5884;43.618;1.438;2023-05-14T09:29:17;16.20;99.90
11656;DHT22;5884;43.618;1.438;2023-05-14T09:31:46;16.30;99.90
11656;DHT22;5884;43.618;1.438;2023-05-14T09:34:23;16.50;99.90
11656;DHT22;5884;43.618;1.438;2023-05-14T09:36:54;16.70;99.90
11656;DHT22;5884;43.618;1.438;2023-05-14T09:39:22;16.70;99.90
11656;DHT22;5884;43.618;1.438;2023-05-14T09:41:49;16.50;99.90
11656;DHT22;5884;43.618;1.438;2023-05-14T09:44:17;16.50;99.90
11656;DHT22;5884;43.618;1.438;2023-05-14T09:46:46;16.70;99.90
11656;DHT22;5884;43.618;1.438;2023-05-14T09:49:14;17.10;99.90
11656;DHT22;5884;43.618;1.438;2023-05-14T09:51:41;16.90;99.90
11656;DHT22;5884;43.618;1.438;2023-05-14T09:54:09;16.90;99.90
11656;DHT22;5884;43.618;1.438;2023-05-14T09:56:37;17.20;99.90
11656;DHT22;5884;43.618;1.438;2023-05-14T09:59:05;17.00;99.90
11656;DHT22;5884;43.618;1.438;2023-05-14T10:01:32;17.00;99.90
11656;DHT22;5884;43.618;1.438;2023-05-14T10:04:02;17.10;99.90
11656;DHT22;5884;43.618;1.438;2023-05-14T10:06:36;17.00;99.90
11656;DHT22;5884;43.618;1.438;2023-05-14T10:09:06;17.00;99.90
11656;DHT22;5884;43.618;1.438;2023-05-14T10:11:38;17.10;99.90
11656;DHT22;5884;43.618;1.438;2023-05-14T10:14:24;17.40;99.90
11656;DHT22;5884;43.618;1.438;2023-05-14T10:16:53;17.30;99.90
11656;DHT22;5884;43.618;1.438;2023-05-14T10:19:23;17.20;99.90
11656;DHT22;5884;43.618;1.438;2023-05-14T10:21:54;17.20;99.90
11656;DHT22;5884;43.618;1.438;2023-05-14T10:24:23;17.00;99.90
11656;DHT22;5884;43.618;1.438;2023-05-14T10:26:51;17.00;99.90
11656;DHT22;5884;43.618;1.438;2023-05-14T10:29:19;17.10;99.90
11656;DHT22;5884;43.618;1.438;2023-05-14T10:31:57;17.20;99.90
11656;DHT22;5884;43.618;1.438;2023-05-14T10:34:33;17.20;99.90
11656;DHT22;5884;43.618;1.438;2023-05-14T10:37:03;17.30;99.90
11656;DHT22;5884;43.618;1.438;2023-05-14T10:39:42;17.30;99.90
11656;DHT22;5884;43.618;1.438;2023-05-14T10:42:11;17.50;99.90
11656;DHT22;5884;43.618;1.438;2023-05-14T10:44:46;17.60;99.90
11656;DHT22;5884;43.618;1.438;2023-05-14T10:47:15;17.70;99.90
11656;DHT22;5884;43.618;1.438;2023-05-14T10:49:45;17.80;99.90
11656;DHT22;5884;43.618;1.438;2023-05-14T10:52:16;17.90;99.90
11656;DHT22;5884;43.618;1.438;2023-05-14T10:54:52;18.30;99.90
11656;DHT22;5884;43.618;1.438;2023-05-14T10:57:21;18.30;99.90
11656;DHT22;5884;43.618;1.438;2023-05-14T10:59:50;18.30;99.90
11656;DHT22;5884;43.618;1.438;2023-05-14T11:02:24;18.40;99.90
11656;DHT22;5884;43.618;1.438;2023-05-14T11:04:57;18.30;99.90
11656;DHT22;5884;43.618;1.438;2023-05-14T11:07:29;18.30;99.90
11656;DHT22;5884;43.618;1.438;2023-05-14T11:10:02;18.40;99.90
11656;DHT22;5884;43.618;1.438;2023-05-14T11:12:31;18.30;99.90
11656;DHT22;5884;43.618;1.438;2023-05-14T11:15:00;18.10;99.90
11656;DHT22;5884;43.618;1.438;2023-05-14T11:17:29;18.60;99.90
11656;DHT22;5884;43.618;1.438;2023-05-14T11:19:59;18.90;99.90
11656;DHT22;5884;43.618;1.438;2023-05-14T11:22:26;18.50;99.90
11656;DHT22;5884;43.618;1.438;2023-05-14T11:24:53;18.50;99.90
11656;DHT22;5884;43.618;1.438;2023-05-14T11:27:21;18.30;99.90
11656;DHT22;5884;43.618;1.438;2023-05-14T11:29:49;18.30;99.90
11656;DHT22;5884;43.618;1.438;2023-05-14T11:32:17;18.30;99.90
11656;DHT22;5884;43.618;1.438;2023-05-14T11:34:45;18.80;99.90
11656;DHT22;5884;43.618;1.438;2023-05-14T11:37:15;18.90;99.90
11656;DHT22;5884;43.618;1.438;2023-05-14T11:39:47;18.70;99.90
11656;DHT22;5884;43.618;1.438;2023-05-14T11:42:15;18.30;99.90
11656;DHT22;5884;43.618;1.438;2023-05-14T11:44:45;18.80;99.90
11656;DHT22;5884;43.618;1.438;2023-05-14T11:47:14;19.20;99.90
11656;DHT22;5884;43.618;1.438;2023-05-14T11:49:43;19.40;99.90
11656;DHT22;5884;43.618;1.438;2023-05-14T11:52:12;19.20;99.90
11656;DHT22;5884;43.618;1.438;2023-05-14T11:54:44;19.30;99.90
11656;DHT22;5884;43.618;1.438;2023-05-14T11:57:12;19.10;99.90
11656;DHT22;5884;43.618;1.438;2023-05-14T11:59:41;19.10;99.90
11656;DHT22;5884;43.618;1.438;2023-05-14T12:02:10;19.20;99.90
11656;DHT22;5884;43.618;1.438;2023-05-14T12:04:38;19.50;99.90
11656;DHT22;5884;43.618;1.438;2023-05-14T12:07:10;19.60;99.90
11656;DHT22;5884;43.618;1.438;2023-05-14T12:09:41;19.60;99.90
11656;DHT22;5884;43.618;1.438;2023-05-14T12:12:14;19.30;99.90
11656;DHT22;5884;43.618;1.438;2023-05-14T12:14:42;19.10;99.90
11656;DHT22;5884;43.618;1.438;2023-05-14T12:17:14;18.70;99.90
11656;DHT22;5884;43.618;1.438;2023-05-14T12:19:43;18.40;99.90
11656;DHT22;5884;43.618;1.438;2023-05-14T12:22:13;18.20;99.90
11656;DHT22;5884;43.618;1.438;2023-05-14T12:24:46;18.10;99.90
11656;DHT22;5884;43.618;1.438;2023-05-14T12:27:21;18.00;99.90
11656;DHT22;5884;43.618;1.438;2023-05-14T12:29:49;18.10;99.90
11656;DHT22;5884;43.618;1.438;2023-05-14T12:32:18;18.00;99.90
11656;DHT22;5884;43.618;1.438;2023-05-14T12:34:45;17.90;99.90
11656;DHT22;5884;43.618;1.438;2023-05-14T12:37:12;17.90;99.90
11656;DHT22;5884;43.618;1.438;2023-05-14T12:39:39;18.00;99.90
11656;DHT22;5884;43.618;1.438;2023-05-14T12:42:08;18.30;99.90
11656;DHT22;5884;43.618;1.438;2023-05-14T12:44:35;18.60;99.90
11656;DHT22;5884;43.618;1.438;2023-05-14T12:47:03;19.10;99.90
11656;DHT22;5884;43.618;1.438;2023-05-14T12:49:30;19.30;99.90
11656;DHT22;5884;43.618;1.438;2023-05-14T12:51:58;19.60;99.90
11656;DHT22;5884;43.618;1.438;2023-05-14T12:54:25;20.00;99.90
11656;DHT22;5884;43.618;1.438;2023-05-14T12:56:52;19.90;99.90
11656;DHT22;5884;43.618;1.438;2023-05-14T12:59:21;19.50;99.90
11656;DHT22;5884;43.618;1.438;2023-05-14T13:01:48;19.30;99.90
11656;DHT22;5884;43.618;1.438;2023-05-14T13:04:15;19.10;99.90
11656;DHT22;5884;43.618;1.438;2023-05-14T13:06:43;19.00;99.90
11656;DHT22;5884;43.618;1.438;2023-05-14T13:09:10;19.00;99.90
11656;DHT22;5884;43.618;1.438;2023-05-14T13:11:37;19.10;99.90
11656;DHT22;5884;43.618;1.438;2023-05-14T13:14:04;19.10;99.90
11656;DHT22;5884;43.618;1.438;2023-05-14T13:16:34;19.10;99.90
11656;DHT22;5884;43.618;1.438;2023-05-14T13:19:01;19.20;99.90
11656;DHT22;5884;43.618;1.438;2023-05-14T13:21:28;19.40;99.90
11656;DHT22;5884;43.618;1.438;2023-05-14T13:23:55;19.70;99.90
11656;DHT22;5884;43.618;1.438;2023-05-14T13:26:23;20.00;99.90
11656;DHT22;5884;43.618;1.438;2023-05-14T13:28:51;20.30;99.90
11656;DHT22;5884;43.618;1.438;2023-05-14T13:31:18;20.90;99.90
11656;DHT22;5884;43.618;1.438;2023-05-14T13:33:46;21.10;99.90
11656;DHT22;5884;43.618;1.438;2023-05-14T13:36:14;20.90;99.90
11656;DHT22;5884;43.618;1.438;2023-05-14T13:38:41;20.90;99.90
11656;DHT22;5884;43.618;1.438;2023-05-14T13:41:10;20.50;99.90
11656;DHT22;5884;43.618;1.438;2023-05-14T13:43:37;20.30;99.90
11656;DHT22;5884;43.618;1.438;2023-05-14T13:46:06;20.30;99.90
11656;DHT22;5884;43.618;1.438;2023-05-14T13:48:33;20.20;99.90
11656;DHT22;5884;43.618;1.438;2023-05-14T13:51:03;20.10;99.90
11656;DHT22;5884;43.618;1.438;2023-05-14T13:53:30;19.90;99.90
11656;DHT22;5884;43.618;1.438;2023-05-14T13:55:57;19.90;99.90
11656;DHT22;5884;43.618;1.438;2023-05-14T13:58:26;19.70;99.90
11656;DHT22;5884;43.618;1.438;2023-05-14T14:00:54;19.80;99.90
11656;DHT22;5884;43.618;1.438;2023-05-14T14:03:21;20.00;99.90
11656;DHT22;5884;43.618;1.438;2023-05-14T14:05:48;20.10;99.90
11656;DHT22;5884;43.618;1.438;2023-05-14T14:08:18;20.30;99.90
11656;DHT22;5884;43.618;1.438;2023-05-14T14:10:45;20.40;99.90
11656;DHT22;5884;43.618;1.438;2023-05-14T14:13:13;20.40;99.90
11656;DHT22;5884;43.618;1.438;2023-05-14T14:15:40;20.40;99.90
11656;DHT22;5884;43.618;1.438;2023-05-14T14:18:08;20.10;99.90
11656;DHT22;5884;43.618;1.438;2023-05-14T14:20:35;19.90;99.90
11656;DHT22;5884;43.618;1.438;2023-05-14T14:23:02;19.80;99.90
11656;DHT22;5884;43.618;1.438;2023-05-14T14:25:31;19.70;99.90
11656;DHT22;5884;43.618;1.438;2023-05-14T14:27:58;19.60;99.90
11656;DHT22;5884;43.618;1.438;2023-05-14T14:30:25;19.60;99.90
11656;DHT22;5884;43.618;1.438;2023-05-14T14:32:52;19.70;99.90
11656;DHT22;5884;43.618;1.438;2023-05-14T14:35:20;20.00;99.90
11656;DHT22;5884;43.618;1.438;2023-05-14T14:37:47;20.20;99.90
11656;DHT22;5884;43.618;1.438;2023-05-14T14:40:16;20.50;99.90
11656;DHT22;5884;43.618;1.438;2023-05-14T14:42:45;20.60;99.90
11656;DHT22;5884;43.618;1.438;2023-05-14T14:45:12;20.50;99.90
11656;DHT22;5884;43.618;1.438;2023-05-14T14:47:44;20.60;99.90
11656;DHT22;5884;43.618;1.438;2023-05-14T14:50:12;20.70;99.90
11656;DHT22;5884;43.618;1.438;2023-05-14T14:52:40;20.90;99.90
11656;DHT22;5884;43.618;1.438;2023-05-14T14:55:09;20.60;99.90
11656;DHT22;5884;43.618;1.438;2023-05-14T14:57:36;20.30;99.90
11656;DHT22;5884;43.618;1.438;2023-05-14T15:00:06;20.10;99.90
11656;DHT22;5884;43.618;1.438;2023-05-14T15:02:34;20.10;99.90
11656;DHT22;5884;43.618;1.438;2023-05-14T15:05:03;20.00;99.90
11656;DHT22;5884;43.618;1.438;2023-05-14T15:07:31;19.90;99.90
11656;DHT22;5884;43.618;1.438;2023-05-14T15:09:58;19.70;99.90
11656;DHT22;5884;43.618;1.438;2023-05-14T15:12:26;19.90;99.90
11656;DHT22;5884;43.618;1.438;2023-05-14T15:14:53;20.20;99.90
11656;DHT22;5884;43.618;1.438;2023-05-14T15:17:21;20.20;99.90
11656;DHT22;5884;43.618;1.438;2023-05-14T15:19:50;20.30;99.90
11656;DHT22;5884;43.618;1.438;2023-05-14T15:22:18;20.30;99.90
11656;DHT22;5884;43.618;1.438;2023-05-14T15:24:45;20.50;99.90
11656;DHT22;5884;43.618;1.438;2023-05-14T15:27:12;20.80;99.90
11656;DHT22;5884;43.618;1.438;2023-05-14T15:29:40;20.50;99.90
11656;DHT22;5884;43.618;1.438;2023-05-14T15:32:07;20.50;99.90
11656;DHT22;5884;43.618;1.438;2023-05-14T15:34:35;20.50;99.90
11656;DHT22;5884;43.618;1.438;2023-05-14T15:37:03;20.50;99.90
11656;DHT22;5884;43.618;1.438;2023-05-14T15:39:30;20.40;99.90
11656;DHT22;5884;43.618;1.438;2023-05-14T15:41:57;20.30;99.90
11656;DHT22;5884;43.618;1.438;2023-05-14T15:44:24;20.30;99.90
11656;DHT22;5884;43.618;1.438;2023-05-14T15:46:52;20.10;99.90
11656;DHT22;5884;43.618;1.438;2023-05-14T15:49:19;20.50;99.90
11656;DHT22;5884;43.618;1.438;2023-05-14T15:51:48;21.00;99.90
11656;DHT22;5884;43.618;1.438;2023-05-14T15:54:15;21.10;99.90
11656;DHT22;5884;43.618;1.438;2023-05-14T15:56:42;21.00;99.90
11656;DHT22;5884;43.618;1.438;2023-05-14T15:59:09;20.80;99.90
11656;DHT22;5884;43.618;1.438;2023-05-14T16:01:38;20.50;99.90
11656;DHT22;5884;43.618;1.438;2023-05-14T16:04:05;20.20;99.90
11656;DHT22;5884;43.618;1.438;2023-05-14T16:06:32;20.10;99.90
11656;DHT22;5884;43.618;1.438;2023-05-14T16:09:01;20.00;99.90
11656;DHT22;5884;43.618;1.438;2023-05-14T16:11:29;19.80;99.90
11656;DHT22;5884;43.618;1.438;2023-05-14T16:13:56;19.90;99.90
11656;DHT22;5884;43.618;1.438;2023-05-14T16:16:24;19.90;99.90
11656;DHT22;5884;43.618;1.438;2023-05-14T16:18:51;19.80;99.90
11656;DHT22;5884;43.618;1.438;2023-05-14T16:21:18;19.60;99.90
11656;DHT22;5884;43.618;1.438;2023-05-14T16:23:45;19.30;99.90
11656;DHT22;5884;43.618;1.438;2023-05-14T16:26:14;19.20;99.90
11656;DHT22;5884;43.618;1.438;2023-05-14T16:28:41;19.10;99.90
11656;DHT22;5884;43.618;1.438;2023-05-14T16:31:08;18.80;99.90
11656;DHT22;5884;43.618;1.438;2023-05-14T16:33:36;18.50;99.90
11656;DHT22;5884;43.618;1.438;2023-05-14T16:36:03;18.40;99.90
11656;DHT22;5884;43.618;1.438;2023-05-14T16:38:30;18.30;99.90
11656;DHT22;5884;43.618;1.438;2023-05-14T16:40:58;18.20;99.90
11656;DHT22;5884;43.618;1.438;2023-05-14T16:43:27;17.90;99.90
11656;DHT22;5884;43.618;1.438;2023-05-14T16:45:55;17.60;99.90
11656;DHT22;5884;43.618;1.438;2023-05-14T16:48:22;17.50;99.90
11656;DHT22;5884;43.618;1.438;2023-05-14T16:50:51;17.40;99.90
11656;DHT22;5884;43.618;1.438;2023-05-14T16:53:18;17.30;99.90
11656;DHT22;5884;43.618;1.438;2023-05-14T16:55:45;17.10;99.90
11656;DHT22;5884;43.618;1.438;2023-05-14T16:58:13;17.00;99.90
11656;DHT22;5884;43.618;1.438;2023-05-14T17:00:41;17.00;99.90
11656;DHT22;5884;43.618;1.438;2023-05-14T17:03:08;16.70;99.90
11656;DHT22;5884;43.618;1.438;2023-05-14T17:05:36;16.40;99.90
11656;DHT22;5884;43.618;1.438;2023-05-14T17:08:03;16.10;99.90
11656;DHT22;5884;43.618;1.438;2023-05-14T17:10:31;15.90;99.90
11656;DHT22;5884;43.618;1.438;2023-05-14T17:12:58;15.80;99.90
11656;DHT22;5884;43.618;1.438;2023-05-14T17:15:26;15.80;99.90
11656;DHT22;5884;43.618;1.438;2023-05-14T17:17:55;15.90;99.90
11656;DHT22;5884;43.618;1.438;2023-05-14T17:20:23;16.00;99.90
11656;DHT22;5884;43.618;1.438;2023-05-14T17:22:50;16.20;99.90
11656;DHT22;5884;43.618;1.438;2023-05-14T17:25:17;16.30;99.90
11656;DHT22;5884;43.618;1.438;2023-05-14T17:27:45;16.20;99.90
11656;DHT22;5884;43.618;1.438;2023-05-14T17:30:12;16.20;99.90
11656;DHT22;5884;43.618;1.438;2023-05-14T17:32:40;16.10;99.90
11656;DHT22;5884;43.618;1.438;2023-05-14T17:35:08;16.00;99.90
11656;DHT22;5884;43.618;1.438;2023-05-14T17:37:36;15.90;99.90
11656;DHT22;5884;43.618;1.438;2023-05-14T17:40:04;16.00;99.90
11656;DHT22;5884;43.618;1.438;2023-05-14T17:42:32;16.30;99.90
11656;DHT22;5884;43.618;1.438;2023-05-14T17:44:59;16.20;99.90
11656;DHT22;5884;43.618;1.438;2023-05-14T17:47:26;16.20;99.90
11656;DHT22;5884;43.618;1.438;2023-05-14T17:49:53;16.00;99.90
11656;DHT22;5884;43.618;1.438;2023-05-14T17:52:22;15.90;99.90
11656;DHT22;5884;43.618;1.438;2023-05-14T17:54:49;15.90;99.90
11656;DHT22;5884;43.618;1.438;2023-05-14T17:57:16;15.90;99.90
11656;DHT22;5884;43.618;1.438;2023-05-14T17:59:44;16.00;99.90
11656;DHT22;5884;43.618;1.438;2023-05-14T18:02:11;16.00;99.90
11656;DHT22;5884;43.618;1.438;2023-05-14T18:04:38;16.00;99.90
11656;DHT22;5884;43.618;1.438;2023-05-14T18:07:05;16.00;99.90
11656;DHT22;5884;43.618;1.438;2023-05-14T18:09:34;15.90;99.90
11656;DHT22;5884;43.618;1.438;2023-05-14T18:12:01;15.90;99.90
11656;DHT22;5884;43.618;1.438;2023-05-14T18:14:29;15.80;99.90
11656;DHT22;5884;43.618;1.438;2023-05-14T18:16:56;15.80;99.90
11656;DHT22;5884;43.618;1.438;2023-05-14T18:19:23;15.70;99.90
11656;DHT22;5884;43.618;1.438;2023-05-14T18:21:50;15.70;99.90
11656;DHT22;5884;43.618;1.438;2023-05-14T18:24:19;15.80;99.90
11656;DHT22;5884;43.618;1.438;2023-05-14T18:26:48;15.80;99.90
11656;DHT22;5884;43.618;1.438;2023-05-14T18:29:15;15.80;99.90
11656;DHT22;5884;43.618;1.438;2023-05-14T18:31:42;15.70;99.90
11656;DHT22;5884;43.618;1.438;2023-05-14T18:34:10;15.80;99.90
11656;DHT22;5884;43.618;1.438;2023-05-14T18:36:37;15.70;99.90
11656;DHT22;5884;43.618;1.438;2023-05-14T18:39:04;15.70;99.90
11656;DHT22;5884;43.618;1.438;2023-05-14T18:41:31;15.70;99.90
11656;DHT22;5884;43.618;1.438;2023-05-14T18:44:00;15.70;99.90
11656;DHT22;5884;43.618;1.438;2023-05-14T18:46:27;15.60;99.90
11656;DHT22;5884;43.618;1.438;2023-05-14T18:48:55;15.50;99.90
11656;DHT22;5884;43.618;1.438;2023-05-14T18:51:22;15.40;99.90
11656;DHT22;5884;43.618;1.438;2023-05-14T18:53:49;15.40;99.90
11656;DHT22;5884;43.618;1.438;2023-05-14T18:56:16;15.30;99.90
11656;DHT22;5884;43.618;1.438;2023-05-14T18:58:43;15.10;99.90
11656;DHT22;5884;43.618;1.438;2023-05-14T19:01:12;15.00;99.90
11656;DHT22;5884;43.618;1.438;2023-05-14T19:03:39;15.00;99.90
11656;DHT22;5884;43.618;1.438;2023-05-14T19:06:06;14.90;99.90
11656;DHT22;5884;43.618;1.438;2023-05-14T19:08:34;14.90;99.90
11656;DHT22;5884;43.618;1.438;2023-05-14T19:11:01;14.90;99.90
11656;DHT22;5884;43.618;1.438;2023-05-14T19:13:28;14.80;99.90
11656;DHT22;5884;43.618;1.438;2023-05-14T19:15:55;14.80;99.90
11656;DHT22;5884;43.618;1.438;2023-05-14T19:18:24;14.80;99.90
11656;DHT22;5884;43.618;1.438;2023-05-14T19:20:51;14.70;99.90
11656;DHT22;5884;43.618;1.438;2023-05-14T19:23:18;14.70;99.90
11656;DHT22;5884;43.618;1.438;2023-05-14T19:25:45;14.70;99.90
11656;DHT22;5884;43.618;1.438;2023-05-14T19:28:13;14.60;99.90
11656;DHT22;5884;43.618;1.438;2023-05-14T19:30:41;14.60;99.90
11656;DHT22;5884;43.618;1.438;2023-05-14T19:33:08;14.50;99.90
11656;DHT22;5884;43.618;1.438;2023-05-14T19:35:36;14.60;99.90
11656;DHT22;5884;43.618;1.438;2023-05-14T19:38:04;14.60;99.90
11656;DHT22;5884;43.618;1.438;2023-05-14T19:40:31;14.60;99.90
11656;DHT22;5884;43.618;1.438;2023-05-14T19:42:58;14.50;99.90
11656;DHT22;5884;43.618;1.438;2023-05-14T19:45:25;14.50;99.90
11656;DHT22;5884;43.618;1.438;2023-05-14T19:47:52;14.50;99.90
11656;DHT22;5884;43.618;1.438;2023-05-14T19:50:20;14.50;99.90
11656;DHT22;5884;43.618;1.438;2023-05-14T19:52:48;14.40;99.90
11656;DHT22;5884;43.618;1.438;2023-05-14T19:55:16;14.40;99.90
11656;DHT22;5884;43.618;1.438;2023-05-14T19:57:43;14.40;99.90
11656;DHT22;5884;43.618;1.438;2023-05-14T20:00:11;14.40;99.90
11656;DHT22;5884;43.618;1.438;2023-05-14T20:02:38;14.40;99.90
11656;DHT22;5884;43.618;1.438;2023-05-14T20:05:07;14.40;99.90
11656;DHT22;5884;43.618;1.438;2023-05-14T20:07:35;14.30;99.90
11656;DHT22;5884;43.618;1.438;2023-05-14T20:10:04;14.30;99.90
11656;DHT22;5884;43.618;1.438;2023-05-14T20:12:32;14.30;99.90
11656;DHT22;5884;43.618;1.438;2023-05-14T20:14:59;14.30;99.90
11656;DHT22;5884;43.618;1.438;2023-05-14T20:17:26;14.30;99.90
11656;DHT22;5884;43.618;1.438;2023-05-14T20:19:53;14.30;99.90
11656;DHT22;5884;43.618;1.438;2023-05-14T20:22:21;14.30;99.90
11656;DHT22;5884;43.618;1.438;2023-05-14T20:24:48;14.30;99.90
11656;DHT22;5884;43.618;1.438;2023-05-14T20:27:18;14.30;99.90
11656;DHT22;5884;43.618;1.438;2023-05-14T20:29:45;14.30;99.90
11656;DHT22;5884;43.618;1.438;2023-05-14T20:32:15;14.30;99.90
11656;DHT22;5884;43.618;1.438;2023-05-14T20:34:43;14.20;99.90